<?xml version="1.0" encoding="UTF-8" standalone="no" ?>
<gpx xmlns="http://www.topografix.com/GPX/1/1" xmlns:xsi="http://www.w3.org/2001/XMLSchema-instance" xsi:schemaLocation="http://www.topografix.com/GPX/1/1 http://www.topografix.com/GPX/1/1/gpx.xsd" version="1.1" creator="VisuGPX - https://www.visugpx.com">
  <metadata>
    <name>After taff Pellet a l\'arrache</name>
    <desc><![CDATA[Mountain biking]]></desc>
  </metadata>
  <trk>
    <name><![CDATA[Pellet 10/09/2010 17:58]]></name>
    <trkseg>
      <trkpt lat="45.2276" lon="5.77837">
        <ele>494.5</ele>
        <time>2010-09-10T16:36:30.74</time>
      </trkpt>
      <trkpt lat="45.22762" lon="5.77833">
        <ele>486.5</ele>
        <time>2010-09-10T16:36:53.71</time>
      </trkpt>
      <trkpt lat="45.22759" lon="5.77806">
        <ele>484</ele>
        <time>2010-09-10T16:37:03.67</time>
      </trkpt>
      <trkpt lat="45.2276" lon="5.77773">
        <ele>485.5</ele>
        <time>2010-09-10T16:37:13.62</time>
      </trkpt>
      <trkpt lat="45.2276" lon="5.77777">
        <ele>484.5</ele>
        <time>2010-09-10T16:37:25.58</time>
      </trkpt>
      <trkpt lat="45.22764" lon="5.77797">
        <ele>484.5</ele>
        <time>2010-09-10T16:37:35.53</time>
      </trkpt>
      <trkpt lat="45.22764" lon="5.77804">
        <ele>485</ele>
        <time>2010-09-10T16:37:45.48</time>
      </trkpt>
      <trkpt lat="45.22769" lon="5.77809">
        <ele>492</ele>
        <time>2010-09-10T16:38:04.44</time>
      </trkpt>
      <trkpt lat="45.2277" lon="5.77823">
        <ele>493.5</ele>
        <time>2010-09-10T16:38:23.42</time>
      </trkpt>
      <trkpt lat="45.22782" lon="5.7788">
        <ele>494.5</ele>
        <time>2010-09-10T16:38:34.36</time>
      </trkpt>
      <trkpt lat="45.22796" lon="5.77877">
        <ele>495.5</ele>
        <time>2010-09-10T16:38:44.34</time>
      </trkpt>
      <trkpt lat="45.22801" lon="5.77878">
        <ele>495</ele>
        <time>2010-09-10T16:39:04.30</time>
      </trkpt>
      <trkpt lat="45.22802" lon="5.77881">
        <ele>504</ele>
        <time>2010-09-10T16:39:24.26</time>
      </trkpt>
      <trkpt lat="45.2281" lon="5.77882">
        <ele>500</ele>
        <time>2010-09-10T16:40:13.23</time>
      </trkpt>
      <trkpt lat="45.22804" lon="5.77878">
        <ele>499</ele>
        <time>2010-09-10T16:40:23.19</time>
      </trkpt>
      <trkpt lat="45.22822" lon="5.77881">
        <ele>498</ele>
        <time>2010-09-10T16:40:34.16</time>
      </trkpt>
      <trkpt lat="45.2283" lon="5.77872">
        <ele>496.5</ele>
        <time>2010-09-10T16:40:44.13</time>
      </trkpt>
      <trkpt lat="45.22838" lon="5.77855">
        <ele>497.5</ele>
        <time>2010-09-10T16:40:54.10</time>
      </trkpt>
      <trkpt lat="45.22847" lon="5.77838">
        <ele>504</ele>
        <time>2010-09-10T16:41:04.05</time>
      </trkpt>
      <trkpt lat="45.2286" lon="5.77827">
        <ele>512.5</ele>
        <time>2010-09-10T16:41:13.99</time>
      </trkpt>
      <trkpt lat="45.22869" lon="5.77813">
        <ele>513</ele>
        <time>2010-09-10T16:41:23.95</time>
      </trkpt>
      <trkpt lat="45.22877" lon="5.77804">
        <ele>516.5</ele>
        <time>2010-09-10T16:41:33.89</time>
      </trkpt>
      <trkpt lat="45.22885" lon="5.77797">
        <ele>510.5</ele>
        <time>2010-09-10T16:41:43.86</time>
      </trkpt>
      <trkpt lat="45.22884" lon="5.77787">
        <ele>509.5</ele>
        <time>2010-09-10T16:41:53.81</time>
      </trkpt>
      <trkpt lat="45.22894" lon="5.77775">
        <ele>508</ele>
        <time>2010-09-10T16:42:04.76</time>
      </trkpt>
      <trkpt lat="45.229" lon="5.77766">
        <ele>506.5</ele>
        <time>2010-09-10T16:42:15.71</time>
      </trkpt>
      <trkpt lat="45.22906" lon="5.77762">
        <ele>507</ele>
        <time>2010-09-10T16:42:25.68</time>
      </trkpt>
      <trkpt lat="45.22913" lon="5.77756">
        <ele>514</ele>
        <time>2010-09-10T16:42:37.63</time>
      </trkpt>
      <trkpt lat="45.22918" lon="5.77752">
        <ele>518.5</ele>
        <time>2010-09-10T16:42:48.60</time>
      </trkpt>
      <trkpt lat="45.22924" lon="5.77748">
        <ele>523</ele>
        <time>2010-09-10T16:42:58.57</time>
      </trkpt>
      <trkpt lat="45.2293" lon="5.77743">
        <ele>525.5</ele>
        <time>2010-09-10T16:43:10.42</time>
      </trkpt>
      <trkpt lat="45.22932" lon="5.77733">
        <ele>528</ele>
        <time>2010-09-10T16:43:40.71</time>
      </trkpt>
      <trkpt lat="45.22935" lon="5.77727">
        <ele>531.5</ele>
        <time>2010-09-10T16:43:51.66</time>
      </trkpt>
      <trkpt lat="45.22941" lon="5.77727">
        <ele>529.5</ele>
        <time>2010-09-10T16:44:01.60</time>
      </trkpt>
      <trkpt lat="45.22948" lon="5.77728">
        <ele>535</ele>
        <time>2010-09-10T16:44:13.67</time>
      </trkpt>
      <trkpt lat="45.22954" lon="5.77721">
        <ele>542</ele>
        <time>2010-09-10T16:44:23.52</time>
      </trkpt>
      <trkpt lat="45.22959" lon="5.77713">
        <ele>541</ele>
        <time>2010-09-10T16:44:34.53</time>
      </trkpt>
      <trkpt lat="45.22967" lon="5.7771">
        <ele>541</ele>
        <time>2010-09-10T16:44:44.61</time>
      </trkpt>
      <trkpt lat="45.22977" lon="5.777">
        <ele>544</ele>
        <time>2010-09-10T16:44:58.69</time>
      </trkpt>
      <trkpt lat="45.2298" lon="5.77695">
        <ele>554</ele>
        <time>2010-09-10T16:45:08.63</time>
      </trkpt>
      <trkpt lat="45.22987" lon="5.77696">
        <ele>559.5</ele>
        <time>2010-09-10T16:45:29.27</time>
      </trkpt>
      <trkpt lat="45.23002" lon="5.77723">
        <ele>553</ele>
        <time>2010-09-10T16:45:46.69</time>
      </trkpt>
      <trkpt lat="45.23022" lon="5.77758">
        <ele>546</ele>
        <time>2010-09-10T16:45:56.66</time>
      </trkpt>
      <trkpt lat="45.23046" lon="5.77789">
        <ele>544.5</ele>
        <time>2010-09-10T16:46:09.65</time>
      </trkpt>
      <trkpt lat="45.23054" lon="5.77791">
        <ele>541</ele>
        <time>2010-09-10T16:46:23.60</time>
      </trkpt>
      <trkpt lat="45.23081" lon="5.77806">
        <ele>546</ele>
        <time>2010-09-10T16:46:36.69</time>
      </trkpt>
      <trkpt lat="45.23088" lon="5.77799">
        <ele>550</ele>
        <time>2010-09-10T16:46:46.64</time>
      </trkpt>
      <trkpt lat="45.23101" lon="5.77796">
        <ele>552.5</ele>
        <time>2010-09-10T16:46:58.61</time>
      </trkpt>
      <trkpt lat="45.23107" lon="5.77792">
        <ele>556.5</ele>
        <time>2010-09-10T16:47:08.55</time>
      </trkpt>
      <trkpt lat="45.23115" lon="5.77791">
        <ele>558</ele>
        <time>2010-09-10T16:47:21.52</time>
      </trkpt>
      <trkpt lat="45.23124" lon="5.7779">
        <ele>569</ele>
        <time>2010-09-10T16:47:32.48</time>
      </trkpt>
      <trkpt lat="45.23124" lon="5.77788">
        <ele>588</ele>
        <time>2010-09-10T16:47:46.61</time>
      </trkpt>
      <trkpt lat="45.23132" lon="5.77782">
        <ele>576</ele>
        <time>2010-09-10T16:47:58.42</time>
      </trkpt>
      <trkpt lat="45.2314" lon="5.77777">
        <ele>578</ele>
        <time>2010-09-10T16:48:09.42</time>
      </trkpt>
      <trkpt lat="45.23155" lon="5.7777">
        <ele>563</ele>
        <time>2010-09-10T16:48:20.34</time>
      </trkpt>
      <trkpt lat="45.2316" lon="5.77767">
        <ele>568</ele>
        <time>2010-09-10T16:48:33.29</time>
      </trkpt>
      <trkpt lat="45.23168" lon="5.77764">
        <ele>567</ele>
        <time>2010-09-10T16:48:43.26</time>
      </trkpt>
      <trkpt lat="45.23174" lon="5.77768">
        <ele>580.5</ele>
        <time>2010-09-10T16:48:58.23</time>
      </trkpt>
      <trkpt lat="45.23177" lon="5.77771">
        <ele>579.5</ele>
        <time>2010-09-10T16:49:09.19</time>
      </trkpt>
      <trkpt lat="45.23179" lon="5.77775">
        <ele>582.5</ele>
        <time>2010-09-10T16:49:25.13</time>
      </trkpt>
      <trkpt lat="45.23184" lon="5.77781">
        <ele>585.5</ele>
        <time>2010-09-10T16:49:38.10</time>
      </trkpt>
      <trkpt lat="45.23182" lon="5.7779">
        <ele>584.5</ele>
        <time>2010-09-10T16:49:49.16</time>
      </trkpt>
      <trkpt lat="45.23178" lon="5.77801">
        <ele>583</ele>
        <time>2010-09-10T16:49:59.03</time>
      </trkpt>
      <trkpt lat="45.23179" lon="5.77814">
        <ele>589.5</ele>
        <time>2010-09-10T16:50:12.81</time>
      </trkpt>
      <trkpt lat="45.23183" lon="5.77819">
        <ele>591</ele>
        <time>2010-09-10T16:50:34.60</time>
      </trkpt>
      <trkpt lat="45.23191" lon="5.77815">
        <ele>595</ele>
        <time>2010-09-10T16:50:44.56</time>
      </trkpt>
      <trkpt lat="45.23208" lon="5.77811">
        <ele>596.5</ele>
        <time>2010-09-10T16:50:54.50</time>
      </trkpt>
      <trkpt lat="45.23231" lon="5.77815">
        <ele>595</ele>
        <time>2010-09-10T16:51:04.45</time>
      </trkpt>
      <trkpt lat="45.23258" lon="5.77833">
        <ele>591.5</ele>
        <time>2010-09-10T16:51:18.70</time>
      </trkpt>
      <trkpt lat="45.23283" lon="5.7788">
        <ele>610</ele>
        <time>2010-09-10T16:51:32.88</time>
      </trkpt>
      <trkpt lat="45.23297" lon="5.77894">
        <ele>612.5</ele>
        <time>2010-09-10T16:51:43.62</time>
      </trkpt>
      <trkpt lat="45.23318" lon="5.77926">
        <ele>607</ele>
        <time>2010-09-10T16:51:55.68</time>
      </trkpt>
      <trkpt lat="45.23342" lon="5.77975">
        <ele>618</ele>
        <time>2010-09-10T16:52:07.52</time>
      </trkpt>
      <trkpt lat="45.23353" lon="5.77993">
        <ele>604.5</ele>
        <time>2010-09-10T16:52:19.47</time>
      </trkpt>
      <trkpt lat="45.23376" lon="5.78031">
        <ele>603.5</ele>
        <time>2010-09-10T16:52:39.42</time>
      </trkpt>
      <trkpt lat="45.23385" lon="5.78043">
        <ele>608.5</ele>
        <time>2010-09-10T16:52:55.38</time>
      </trkpt>
      <trkpt lat="45.23391" lon="5.7806">
        <ele>611.5</ele>
        <time>2010-09-10T16:53:10.33</time>
      </trkpt>
      <trkpt lat="45.23402" lon="5.78085">
        <ele>618.5</ele>
        <time>2010-09-10T16:53:20.33</time>
      </trkpt>
      <trkpt lat="45.23401" lon="5.78096">
        <ele>619</ele>
        <time>2010-09-10T16:53:30.26</time>
      </trkpt>
      <trkpt lat="45.23411" lon="5.78088">
        <ele>620</ele>
        <time>2010-09-10T16:53:40.23</time>
      </trkpt>
      <trkpt lat="45.23424" lon="5.78087">
        <ele>634</ele>
        <time>2010-09-10T16:53:51.18</time>
      </trkpt>
      <trkpt lat="45.23439" lon="5.78088">
        <ele>630</ele>
        <time>2010-09-10T16:54:02.19</time>
      </trkpt>
      <trkpt lat="45.23453" lon="5.78093">
        <ele>618.5</ele>
        <time>2010-09-10T16:54:15.09</time>
      </trkpt>
      <trkpt lat="45.23463" lon="5.78099">
        <ele>620.5</ele>
        <time>2010-09-10T16:54:29.05</time>
      </trkpt>
      <trkpt lat="45.23475" lon="5.78099">
        <ele>613</ele>
        <time>2010-09-10T16:54:46.00</time>
      </trkpt>
      <trkpt lat="45.23478" lon="5.78107">
        <ele>623.5</ele>
        <time>2010-09-10T16:54:56.95</time>
      </trkpt>
      <trkpt lat="45.23499" lon="5.78137">
        <ele>634.5</ele>
        <time>2010-09-10T16:55:09.90</time>
      </trkpt>
      <trkpt lat="45.23506" lon="5.78153">
        <ele>635.5</ele>
        <time>2010-09-10T16:55:21.88</time>
      </trkpt>
      <trkpt lat="45.2353" lon="5.78184">
        <ele>635.5</ele>
        <time>2010-09-10T16:55:36.69</time>
      </trkpt>
      <trkpt lat="45.23546" lon="5.78207">
        <ele>630</ele>
        <time>2010-09-10T16:55:51.65</time>
      </trkpt>
      <trkpt lat="45.23581" lon="5.78254">
        <ele>630.5</ele>
        <time>2010-09-10T16:56:07.61</time>
      </trkpt>
      <trkpt lat="45.23587" lon="5.78269">
        <ele>629</ele>
        <time>2010-09-10T16:56:17.57</time>
      </trkpt>
      <trkpt lat="45.236" lon="5.78286">
        <ele>637</ele>
        <time>2010-09-10T16:56:39.52</time>
      </trkpt>
      <trkpt lat="45.2361" lon="5.78291">
        <ele>641.5</ele>
        <time>2010-09-10T16:56:50.50</time>
      </trkpt>
      <trkpt lat="45.23621" lon="5.78295">
        <ele>639</ele>
        <time>2010-09-10T16:57:01.46</time>
      </trkpt>
      <trkpt lat="45.23627" lon="5.78286">
        <ele>636.5</ele>
        <time>2010-09-10T16:57:15.41</time>
      </trkpt>
      <trkpt lat="45.23626" lon="5.78278">
        <ele>638</ele>
        <time>2010-09-10T16:57:26.36</time>
      </trkpt>
      <trkpt lat="45.23632" lon="5.78283">
        <ele>636</ele>
        <time>2010-09-10T16:57:37.32</time>
      </trkpt>
      <trkpt lat="45.23636" lon="5.7829">
        <ele>630</ele>
        <time>2010-09-10T16:57:50.26</time>
      </trkpt>
      <trkpt lat="45.23635" lon="5.78299">
        <ele>636</ele>
        <time>2010-09-10T16:58:03.24</time>
      </trkpt>
      <trkpt lat="45.23635" lon="5.78306">
        <ele>639</ele>
        <time>2010-09-10T16:58:17.19</time>
      </trkpt>
      <trkpt lat="45.2364" lon="5.7832">
        <ele>642</ele>
        <time>2010-09-10T16:58:40.19</time>
      </trkpt>
      <trkpt lat="45.23657" lon="5.78347">
        <ele>646.5</ele>
        <time>2010-09-10T16:58:50.11</time>
      </trkpt>
      <trkpt lat="45.23682" lon="5.78386">
        <ele>647.5</ele>
        <time>2010-09-10T16:59:00.10</time>
      </trkpt>
      <trkpt lat="45.23726" lon="5.78449">
        <ele>644.5</ele>
        <time>2010-09-10T16:59:10.02</time>
      </trkpt>
      <trkpt lat="45.23743" lon="5.78522">
        <ele>649</ele>
        <time>2010-09-10T16:59:19.98</time>
      </trkpt>
      <trkpt lat="45.23728" lon="5.78587">
        <ele>649</ele>
        <time>2010-09-10T16:59:30.95</time>
      </trkpt>
      <trkpt lat="45.23751" lon="5.78651">
        <ele>650</ele>
        <time>2010-09-10T16:59:41.89</time>
      </trkpt>
      <trkpt lat="45.2378" lon="5.78662">
        <ele>645</ele>
        <time>2010-09-10T16:59:52.84</time>
      </trkpt>
      <trkpt lat="45.23811" lon="5.78667">
        <ele>642.5</ele>
        <time>2010-09-10T17:00:02.80</time>
      </trkpt>
      <trkpt lat="45.23843" lon="5.7871">
        <ele>637</ele>
        <time>2010-09-10T17:00:13.76</time>
      </trkpt>
      <trkpt lat="45.2387" lon="5.7877">
        <ele>642.5</ele>
        <time>2010-09-10T17:00:24.92</time>
      </trkpt>
      <trkpt lat="45.23901" lon="5.78838">
        <ele>636</ele>
        <time>2010-09-10T17:00:36.68</time>
      </trkpt>
      <trkpt lat="45.23926" lon="5.78891">
        <ele>634</ele>
        <time>2010-09-10T17:00:46.65</time>
      </trkpt>
      <trkpt lat="45.23939" lon="5.78912">
        <ele>625.5</ele>
        <time>2010-09-10T17:00:56.59</time>
      </trkpt>
      <trkpt lat="45.23941" lon="5.78897">
        <ele>613.5</ele>
        <time>2010-09-10T17:01:06.55</time>
      </trkpt>
      <trkpt lat="45.23935" lon="5.78885">
        <ele>615.5</ele>
        <time>2010-09-10T17:01:16.52</time>
      </trkpt>
      <trkpt lat="45.2394" lon="5.78868">
        <ele>623.5</ele>
        <time>2010-09-10T17:01:26.47</time>
      </trkpt>
      <trkpt lat="45.2394" lon="5.78851">
        <ele>628</ele>
        <time>2010-09-10T17:01:36.59</time>
      </trkpt>
      <trkpt lat="45.23935" lon="5.7884">
        <ele>624</ele>
        <time>2010-09-10T17:01:46.39</time>
      </trkpt>
      <trkpt lat="45.23927" lon="5.78824">
        <ele>620</ele>
        <time>2010-09-10T17:01:58.35</time>
      </trkpt>
      <trkpt lat="45.23928" lon="5.78811">
        <ele>623.5</ele>
        <time>2010-09-10T17:02:11.32</time>
      </trkpt>
      <trkpt lat="45.23928" lon="5.788">
        <ele>622.5</ele>
        <time>2010-09-10T17:02:21.41</time>
      </trkpt>
      <trkpt lat="45.23931" lon="5.78802">
        <ele>622.5</ele>
        <time>2010-09-10T17:02:33.22</time>
      </trkpt>
      <trkpt lat="45.23933" lon="5.78794">
        <ele>626</ele>
        <time>2010-09-10T17:02:44.19</time>
      </trkpt>
      <trkpt lat="45.23935" lon="5.78791">
        <ele>634</ele>
        <time>2010-09-10T17:02:55.31</time>
      </trkpt>
      <trkpt lat="45.23939" lon="5.78793">
        <ele>636.5</ele>
        <time>2010-09-10T17:03:05.11</time>
      </trkpt>
      <trkpt lat="45.2394" lon="5.78783">
        <ele>640</ele>
        <time>2010-09-10T17:03:15.20</time>
      </trkpt>
      <trkpt lat="45.23944" lon="5.78777">
        <ele>636</ele>
        <time>2010-09-10T17:03:26.08</time>
      </trkpt>
      <trkpt lat="45.23952" lon="5.78776">
        <ele>633.5</ele>
        <time>2010-09-10T17:03:37.00</time>
      </trkpt>
      <trkpt lat="45.2395" lon="5.78772">
        <ele>636.5</ele>
        <time>2010-09-10T17:03:47.97</time>
      </trkpt>
      <trkpt lat="45.2395" lon="5.78771">
        <ele>633.5</ele>
        <time>2010-09-10T17:03:57.93</time>
      </trkpt>
      <trkpt lat="45.23955" lon="5.78766">
        <ele>633.5</ele>
        <time>2010-09-10T17:04:10.00</time>
      </trkpt>
      <trkpt lat="45.23958" lon="5.78764">
        <ele>642</ele>
        <time>2010-09-10T17:04:22.84</time>
      </trkpt>
      <trkpt lat="45.23966" lon="5.78763">
        <ele>639</ele>
        <time>2010-09-10T17:04:32.79</time>
      </trkpt>
      <trkpt lat="45.23972" lon="5.78764">
        <ele>641.5</ele>
        <time>2010-09-10T17:04:42.76</time>
      </trkpt>
      <trkpt lat="45.2397" lon="5.78751">
        <ele>642</ele>
        <time>2010-09-10T17:04:52.78</time>
      </trkpt>
      <trkpt lat="45.23974" lon="5.78754">
        <ele>661.5</ele>
        <time>2010-09-10T17:05:03.83</time>
      </trkpt>
      <trkpt lat="45.23981" lon="5.78757">
        <ele>663.5</ele>
        <time>2010-09-10T17:05:13.64</time>
      </trkpt>
      <trkpt lat="45.23985" lon="5.7876">
        <ele>665</ele>
        <time>2010-09-10T17:05:23.59</time>
      </trkpt>
      <trkpt lat="45.23992" lon="5.78762">
        <ele>663.5</ele>
        <time>2010-09-10T17:05:34.56</time>
      </trkpt>
      <trkpt lat="45.24002" lon="5.78761">
        <ele>667.5</ele>
        <time>2010-09-10T17:05:44.54</time>
      </trkpt>
      <trkpt lat="45.2401" lon="5.7876">
        <ele>673</ele>
        <time>2010-09-10T17:05:54.49</time>
      </trkpt>
      <trkpt lat="45.24006" lon="5.78753">
        <ele>668</ele>
        <time>2010-09-10T17:06:04.46</time>
      </trkpt>
      <trkpt lat="45.24005" lon="5.78745">
        <ele>666</ele>
        <time>2010-09-10T17:06:14.53</time>
      </trkpt>
      <trkpt lat="45.24004" lon="5.78731">
        <ele>665.5</ele>
        <time>2010-09-10T17:06:24.40</time>
      </trkpt>
      <trkpt lat="45.24001" lon="5.78723">
        <ele>665.5</ele>
        <time>2010-09-10T17:06:34.34</time>
      </trkpt>
      <trkpt lat="45.24001" lon="5.78716">
        <ele>669</ele>
        <time>2010-09-10T17:06:44.29</time>
      </trkpt>
      <trkpt lat="45.24005" lon="5.78715">
        <ele>676.5</ele>
        <time>2010-09-10T17:06:55.25</time>
      </trkpt>
      <trkpt lat="45.24008" lon="5.78715">
        <ele>677</ele>
        <time>2010-09-10T17:07:05.20</time>
      </trkpt>
      <trkpt lat="45.24016" lon="5.78717">
        <ele>677.5</ele>
        <time>2010-09-10T17:07:19.19</time>
      </trkpt>
      <trkpt lat="45.24022" lon="5.78717">
        <ele>681</ele>
        <time>2010-09-10T17:07:29.14</time>
      </trkpt>
      <trkpt lat="45.24016" lon="5.7871">
        <ele>683</ele>
        <time>2010-09-10T17:07:39.09</time>
      </trkpt>
      <trkpt lat="45.24015" lon="5.78702">
        <ele>684.5</ele>
        <time>2010-09-10T17:07:49.31</time>
      </trkpt>
      <trkpt lat="45.24021" lon="5.7869">
        <ele>688.5</ele>
        <time>2010-09-10T17:07:59.01</time>
      </trkpt>
      <trkpt lat="45.24026" lon="5.78682">
        <ele>681</ele>
        <time>2010-09-10T17:08:09.97</time>
      </trkpt>
      <trkpt lat="45.24023" lon="5.78676">
        <ele>683</ele>
        <time>2010-09-10T17:08:19.90</time>
      </trkpt>
      <trkpt lat="45.24015" lon="5.78678">
        <ele>679.5</ele>
        <time>2010-09-10T17:08:29.86</time>
      </trkpt>
      <trkpt lat="45.24011" lon="5.78669">
        <ele>678</ele>
        <time>2010-09-10T17:08:40.83</time>
      </trkpt>
      <trkpt lat="45.24006" lon="5.78664">
        <ele>677</ele>
        <time>2010-09-10T17:08:53.79</time>
      </trkpt>
      <trkpt lat="45.24013" lon="5.78663">
        <ele>684.5</ele>
        <time>2010-09-10T17:09:04.76</time>
      </trkpt>
      <trkpt lat="45.24016" lon="5.78655">
        <ele>688.5</ele>
        <time>2010-09-10T17:09:14.71</time>
      </trkpt>
      <trkpt lat="45.24012" lon="5.78647">
        <ele>691</ele>
        <time>2010-09-10T17:09:24.68</time>
      </trkpt>
      <trkpt lat="45.24016" lon="5.78646">
        <ele>692.5</ele>
        <time>2010-09-10T17:09:35.66</time>
      </trkpt>
      <trkpt lat="45.24022" lon="5.78647">
        <ele>699.5</ele>
        <time>2010-09-10T17:09:46.62</time>
      </trkpt>
      <trkpt lat="45.24028" lon="5.78646">
        <ele>694.5</ele>
        <time>2010-09-10T17:09:57.58</time>
      </trkpt>
      <trkpt lat="45.24028" lon="5.78634">
        <ele>691.5</ele>
        <time>2010-09-10T17:10:07.53</time>
      </trkpt>
      <trkpt lat="45.24022" lon="5.78623">
        <ele>690.5</ele>
        <time>2010-09-10T17:10:17.74</time>
      </trkpt>
      <trkpt lat="45.24031" lon="5.78627">
        <ele>698</ele>
        <time>2010-09-10T17:10:28.46</time>
      </trkpt>
      <trkpt lat="45.24036" lon="5.78627">
        <ele>699</ele>
        <time>2010-09-10T17:10:38.41</time>
      </trkpt>
      <trkpt lat="45.24039" lon="5.78624">
        <ele>696.5</ele>
        <time>2010-09-10T17:10:49.52</time>
      </trkpt>
      <trkpt lat="45.24039" lon="5.78614">
        <ele>705.5</ele>
        <time>2010-09-10T17:10:59.33</time>
      </trkpt>
      <trkpt lat="45.24041" lon="5.78605">
        <ele>713</ele>
        <time>2010-09-10T17:11:09.30</time>
      </trkpt>
      <trkpt lat="45.24048" lon="5.78607">
        <ele>714.5</ele>
        <time>2010-09-10T17:11:19.25</time>
      </trkpt>
      <trkpt lat="45.24056" lon="5.78615">
        <ele>715</ele>
        <time>2010-09-10T17:11:29.21</time>
      </trkpt>
      <trkpt lat="45.24051" lon="5.78602">
        <ele>712.5</ele>
        <time>2010-09-10T17:11:40.16</time>
      </trkpt>
      <trkpt lat="45.24051" lon="5.78601">
        <ele>713</ele>
        <time>2010-09-10T17:11:50.28</time>
      </trkpt>
      <trkpt lat="45.24057" lon="5.78608">
        <ele>716</ele>
        <time>2010-09-10T17:12:00.09</time>
      </trkpt>
      <trkpt lat="45.24065" lon="5.78613">
        <ele>712</ele>
        <time>2010-09-10T17:12:10.03</time>
      </trkpt>
      <trkpt lat="45.24064" lon="5.78603">
        <ele>720.5</ele>
        <time>2010-09-10T17:12:19.98</time>
      </trkpt>
      <trkpt lat="45.24066" lon="5.78596">
        <ele>722</ele>
        <time>2010-09-10T17:12:34.93</time>
      </trkpt>
      <trkpt lat="45.24065" lon="5.7859">
        <ele>722</ele>
        <time>2010-09-10T17:12:45.91</time>
      </trkpt>
      <trkpt lat="45.2406" lon="5.78584">
        <ele>716</ele>
        <time>2010-09-10T17:12:55.86</time>
      </trkpt>
      <trkpt lat="45.24054" lon="5.7858">
        <ele>713</ele>
        <time>2010-09-10T17:13:05.83</time>
      </trkpt>
      <trkpt lat="45.2406" lon="5.78582">
        <ele>718</ele>
        <time>2010-09-10T17:13:15.80</time>
      </trkpt>
      <trkpt lat="45.24064" lon="5.78582">
        <ele>718</ele>
        <time>2010-09-10T17:13:26.76</time>
      </trkpt>
      <trkpt lat="45.2407" lon="5.78585">
        <ele>721</ele>
        <time>2010-09-10T17:13:36.72</time>
      </trkpt>
      <trkpt lat="45.2408" lon="5.78589">
        <ele>723</ele>
        <time>2010-09-10T17:13:46.70</time>
      </trkpt>
      <trkpt lat="45.24089" lon="5.78592">
        <ele>735.5</ele>
        <time>2010-09-10T17:14:00.66</time>
      </trkpt>
      <trkpt lat="45.2409" lon="5.78589">
        <ele>742</ele>
        <time>2010-09-10T17:14:10.88</time>
      </trkpt>
      <trkpt lat="45.24086" lon="5.78576">
        <ele>745</ele>
        <time>2010-09-10T17:14:22.59</time>
      </trkpt>
      <trkpt lat="45.24079" lon="5.7857">
        <ele>744</ele>
        <time>2010-09-10T17:14:32.78</time>
      </trkpt>
      <trkpt lat="45.24072" lon="5.7856">
        <ele>746</ele>
        <time>2010-09-10T17:14:43.49</time>
      </trkpt>
      <trkpt lat="45.24068" lon="5.78547">
        <ele>744</ele>
        <time>2010-09-10T17:14:53.62</time>
      </trkpt>
      <trkpt lat="45.24072" lon="5.78548">
        <ele>749.5</ele>
        <time>2010-09-10T17:15:03.41</time>
      </trkpt>
      <trkpt lat="45.24077" lon="5.78551">
        <ele>748</ele>
        <time>2010-09-10T17:15:13.50</time>
      </trkpt>
      <trkpt lat="45.24081" lon="5.78554">
        <ele>743.5</ele>
        <time>2010-09-10T17:15:23.33</time>
      </trkpt>
      <trkpt lat="45.24087" lon="5.78555">
        <ele>745.5</ele>
        <time>2010-09-10T17:15:33.29</time>
      </trkpt>
      <trkpt lat="45.24097" lon="5.78558">
        <ele>760.5</ele>
        <time>2010-09-10T17:15:43.24</time>
      </trkpt>
      <trkpt lat="45.24103" lon="5.78562">
        <ele>765</ele>
        <time>2010-09-10T17:16:03.21</time>
      </trkpt>
      <trkpt lat="45.2411" lon="5.78562">
        <ele>760.5</ele>
        <time>2010-09-10T17:16:13.18</time>
      </trkpt>
      <trkpt lat="45.24115" lon="5.78559">
        <ele>764.5</ele>
        <time>2010-09-10T17:16:26.16</time>
      </trkpt>
      <trkpt lat="45.24112" lon="5.78549">
        <ele>763</ele>
        <time>2010-09-10T17:16:36.13</time>
      </trkpt>
      <trkpt lat="45.24108" lon="5.78542">
        <ele>764.5</ele>
        <time>2010-09-10T17:16:46.11</time>
      </trkpt>
      <trkpt lat="45.24103" lon="5.78538">
        <ele>765.5</ele>
        <time>2010-09-10T17:16:56.06</time>
      </trkpt>
      <trkpt lat="45.241" lon="5.7853">
        <ele>767.5</ele>
        <time>2010-09-10T17:17:06.03</time>
      </trkpt>
      <trkpt lat="45.24095" lon="5.78522">
        <ele>761.5</ele>
        <time>2010-09-10T17:17:16.01</time>
      </trkpt>
      <trkpt lat="45.24091" lon="5.78515">
        <ele>765.5</ele>
        <time>2010-09-10T17:17:27.97</time>
      </trkpt>
      <trkpt lat="45.24095" lon="5.78515">
        <ele>768.5</ele>
        <time>2010-09-10T17:17:38.93</time>
      </trkpt>
      <trkpt lat="45.24099" lon="5.78516">
        <ele>776</ele>
        <time>2010-09-10T17:17:48.90</time>
      </trkpt>
      <trkpt lat="45.24109" lon="5.78517">
        <ele>779.5</ele>
        <time>2010-09-10T17:18:02.87</time>
      </trkpt>
      <trkpt lat="45.24116" lon="5.78522">
        <ele>785.5</ele>
        <time>2010-09-10T17:18:12.84</time>
      </trkpt>
      <trkpt lat="45.24121" lon="5.78524">
        <ele>783.5</ele>
        <time>2010-09-10T17:18:25.81</time>
      </trkpt>
      <trkpt lat="45.24115" lon="5.78519">
        <ele>789</ele>
        <time>2010-09-10T17:18:35.77</time>
      </trkpt>
      <trkpt lat="45.24111" lon="5.78513">
        <ele>789</ele>
        <time>2010-09-10T17:18:45.74</time>
      </trkpt>
      <trkpt lat="45.24111" lon="5.78504">
        <ele>790.5</ele>
        <time>2010-09-10T17:18:55.69</time>
      </trkpt>
      <trkpt lat="45.24106" lon="5.78496">
        <ele>794</ele>
        <time>2010-09-10T17:19:05.65</time>
      </trkpt>
      <trkpt lat="45.24101" lon="5.78484">
        <ele>794</ele>
        <time>2010-09-10T17:19:15.60</time>
      </trkpt>
      <trkpt lat="45.24107" lon="5.7848">
        <ele>793.5</ele>
        <time>2010-09-10T17:19:28.56</time>
      </trkpt>
      <trkpt lat="45.24114" lon="5.7848">
        <ele>795.5</ele>
        <time>2010-09-10T17:19:39.51</time>
      </trkpt>
      <trkpt lat="45.2412" lon="5.78477">
        <ele>792.5</ele>
        <time>2010-09-10T17:19:53.48</time>
      </trkpt>
      <trkpt lat="45.24116" lon="5.78472">
        <ele>790</ele>
        <time>2010-09-10T17:20:16.48</time>
      </trkpt>
      <trkpt lat="45.24115" lon="5.78468">
        <ele>790.5</ele>
        <time>2010-09-10T17:20:28.42</time>
      </trkpt>
      <trkpt lat="45.24115" lon="5.7846">
        <ele>795</ele>
        <time>2010-09-10T17:20:47.38</time>
      </trkpt>
      <trkpt lat="45.24116" lon="5.78454">
        <ele>785.5</ele>
        <time>2010-09-10T17:21:00.31</time>
      </trkpt>
      <trkpt lat="45.24113" lon="5.78452">
        <ele>800</ele>
        <time>2010-09-10T17:21:23.26</time>
      </trkpt>
      <trkpt lat="45.24109" lon="5.78458">
        <ele>802.5</ele>
        <time>2010-09-10T17:22:23.22</time>
      </trkpt>
      <trkpt lat="45.24108" lon="5.78446">
        <ele>802.5</ele>
        <time>2010-09-10T17:22:42.16</time>
      </trkpt>
      <trkpt lat="45.24108" lon="5.78433">
        <ele>801.5</ele>
        <time>2010-09-10T17:22:56.12</time>
      </trkpt>
      <trkpt lat="45.24105" lon="5.78432">
        <ele>800.5</ele>
        <time>2010-09-10T17:23:08.14</time>
      </trkpt>
      <trkpt lat="45.24102" lon="5.78433">
        <ele>806.5</ele>
        <time>2010-09-10T17:23:20.01</time>
      </trkpt>
      <trkpt lat="45.24096" lon="5.78433">
        <ele>801</ele>
        <time>2010-09-10T17:23:30.97</time>
      </trkpt>
      <trkpt lat="45.24088" lon="5.78426">
        <ele>799</ele>
        <time>2010-09-10T17:23:40.93</time>
      </trkpt>
      <trkpt lat="45.24074" lon="5.78418">
        <ele>808.5</ele>
        <time>2010-09-10T17:23:56.98</time>
      </trkpt>
      <trkpt lat="45.24065" lon="5.78408">
        <ele>801.5</ele>
        <time>2010-09-10T17:24:07.04</time>
      </trkpt>
      <trkpt lat="45.24064" lon="5.78399">
        <ele>798</ele>
        <time>2010-09-10T17:24:16.80</time>
      </trkpt>
      <trkpt lat="45.24067" lon="5.78385">
        <ele>793.5</ele>
        <time>2010-09-10T17:24:29.75</time>
      </trkpt>
      <trkpt lat="45.24061" lon="5.78375">
        <ele>796</ele>
        <time>2010-09-10T17:24:39.71</time>
      </trkpt>
      <trkpt lat="45.24055" lon="5.78366">
        <ele>805</ele>
        <time>2010-09-10T17:24:49.66</time>
      </trkpt>
      <trkpt lat="45.24048" lon="5.78359">
        <ele>805.5</ele>
        <time>2010-09-10T17:25:00.87</time>
      </trkpt>
      <trkpt lat="45.24048" lon="5.78357">
        <ele>818.5</ele>
        <time>2010-09-10T17:25:10.60</time>
      </trkpt>
      <trkpt lat="45.24046" lon="5.78362">
        <ele>821.5</ele>
        <time>2010-09-10T17:25:25.56</time>
      </trkpt>
      <trkpt lat="45.24048" lon="5.78371">
        <ele>822.5</ele>
        <time>2010-09-10T17:25:36.51</time>
      </trkpt>
      <trkpt lat="45.24058" lon="5.78373">
        <ele>835</ele>
        <time>2010-09-10T17:25:46.48</time>
      </trkpt>
      <trkpt lat="45.24061" lon="5.7838">
        <ele>827.5</ele>
        <time>2010-09-10T17:25:56.43</time>
      </trkpt>
      <trkpt lat="45.24066" lon="5.78388">
        <ele>829</ele>
        <time>2010-09-10T17:26:06.40</time>
      </trkpt>
      <trkpt lat="45.24073" lon="5.78393">
        <ele>826.5</ele>
        <time>2010-09-10T17:26:16.36</time>
      </trkpt>
      <trkpt lat="45.24082" lon="5.78394">
        <ele>827.5</ele>
        <time>2010-09-10T17:26:28.43</time>
      </trkpt>
      <trkpt lat="45.24091" lon="5.7839">
        <ele>829</ele>
        <time>2010-09-10T17:26:38.46</time>
      </trkpt>
      <trkpt lat="45.24091" lon="5.78388">
        <ele>833</ele>
        <time>2010-09-10T17:26:51.23</time>
      </trkpt>
      <trkpt lat="45.24085" lon="5.7838">
        <ele>835.5</ele>
        <time>2010-09-10T17:27:01.39</time>
      </trkpt>
      <trkpt lat="45.24085" lon="5.78368">
        <ele>837</ele>
        <time>2010-09-10T17:27:11.13</time>
      </trkpt>
      <trkpt lat="45.2408" lon="5.78359">
        <ele>835.5</ele>
        <time>2010-09-10T17:27:21.11</time>
      </trkpt>
      <trkpt lat="45.24075" lon="5.78345">
        <ele>838.5</ele>
        <time>2010-09-10T17:27:31.07</time>
      </trkpt>
      <trkpt lat="45.24069" lon="5.78334">
        <ele>835</ele>
        <time>2010-09-10T17:27:41.02</time>
      </trkpt>
      <trkpt lat="45.24075" lon="5.78329">
        <ele>836</ele>
        <time>2010-09-10T17:27:50.98</time>
      </trkpt>
      <trkpt lat="45.24084" lon="5.78335">
        <ele>842</ele>
        <time>2010-09-10T17:28:00.93</time>
      </trkpt>
      <trkpt lat="45.24091" lon="5.78342">
        <ele>850</ele>
        <time>2010-09-10T17:28:10.88</time>
      </trkpt>
      <trkpt lat="45.24095" lon="5.7835">
        <ele>848</ele>
        <time>2010-09-10T17:28:20.95</time>
      </trkpt>
      <trkpt lat="45.24105" lon="5.78352">
        <ele>851.5</ele>
        <time>2010-09-10T17:28:30.81</time>
      </trkpt>
      <trkpt lat="45.24101" lon="5.78345">
        <ele>853.5</ele>
        <time>2010-09-10T17:28:40.77</time>
      </trkpt>
      <trkpt lat="45.24096" lon="5.78339">
        <ele>854.5</ele>
        <time>2010-09-10T17:28:54.72</time>
      </trkpt>
      <trkpt lat="45.24094" lon="5.78329">
        <ele>852.5</ele>
        <time>2010-09-10T17:29:04.68</time>
      </trkpt>
      <trkpt lat="45.24092" lon="5.78316">
        <ele>855</ele>
        <time>2010-09-10T17:29:14.64</time>
      </trkpt>
      <trkpt lat="45.24086" lon="5.78306">
        <ele>852</ele>
        <time>2010-09-10T17:29:39.69</time>
      </trkpt>
      <trkpt lat="45.24084" lon="5.78292">
        <ele>851.5</ele>
        <time>2010-09-10T17:29:49.56</time>
      </trkpt>
      <trkpt lat="45.24076" lon="5.78277">
        <ele>850</ele>
        <time>2010-09-10T17:29:59.51</time>
      </trkpt>
      <trkpt lat="45.24069" lon="5.78264">
        <ele>845.5</ele>
        <time>2010-09-10T17:30:10.60</time>
      </trkpt>
      <trkpt lat="45.24072" lon="5.78267">
        <ele>846.5</ele>
        <time>2010-09-10T17:30:20.43</time>
      </trkpt>
      <trkpt lat="45.24076" lon="5.78275">
        <ele>860</ele>
        <time>2010-09-10T17:30:30.37</time>
      </trkpt>
      <trkpt lat="45.24081" lon="5.78277">
        <ele>875</ele>
        <time>2010-09-10T17:30:40.35</time>
      </trkpt>
      <trkpt lat="45.24087" lon="5.78273">
        <ele>872.5</ele>
        <time>2010-09-10T17:31:04.32</time>
      </trkpt>
      <trkpt lat="45.24097" lon="5.78272">
        <ele>875</ele>
        <time>2010-09-10T17:31:15.30</time>
      </trkpt>
      <trkpt lat="45.24103" lon="5.78281">
        <ele>879</ele>
        <time>2010-09-10T17:31:25.24</time>
      </trkpt>
      <trkpt lat="45.24108" lon="5.78287">
        <ele>882.5</ele>
        <time>2010-09-10T17:31:37.20</time>
      </trkpt>
      <trkpt lat="45.24116" lon="5.78285">
        <ele>879.5</ele>
        <time>2010-09-10T17:31:59.17</time>
      </trkpt>
      <trkpt lat="45.24119" lon="5.78282">
        <ele>879.5</ele>
        <time>2010-09-10T17:32:09.11</time>
      </trkpt>
      <trkpt lat="45.24121" lon="5.78291">
        <ele>879</ele>
        <time>2010-09-10T17:32:26.06</time>
      </trkpt>
      <trkpt lat="45.24121" lon="5.78288">
        <ele>876.5</ele>
        <time>2010-09-10T17:32:52.00</time>
      </trkpt>
      <trkpt lat="45.2412" lon="5.78283">
        <ele>859.5</ele>
        <time>2010-09-10T17:33:24.97</time>
      </trkpt>
      <trkpt lat="45.24117" lon="5.78282">
        <ele>864.5</ele>
        <time>2010-09-10T17:33:54.93</time>
      </trkpt>
      <trkpt lat="45.24115" lon="5.78278">
        <ele>861.5</ele>
        <time>2010-09-10T17:34:08.90</time>
      </trkpt>
      <trkpt lat="45.24118" lon="5.78283">
        <ele>863.5</ele>
        <time>2010-09-10T17:35:13.90</time>
      </trkpt>
      <trkpt lat="45.24117" lon="5.78279">
        <ele>868.5</ele>
        <time>2010-09-10T17:36:09.80</time>
      </trkpt>
      <trkpt lat="45.2412" lon="5.78281">
        <ele>870.5</ele>
        <time>2010-09-10T17:37:27.76</time>
      </trkpt>
      <trkpt lat="45.24129" lon="5.78273">
        <ele>868</ele>
        <time>2010-09-10T17:38:11.72</time>
      </trkpt>
      <trkpt lat="45.24096" lon="5.78259">
        <ele>866</ele>
        <time>2010-09-10T17:38:33.68</time>
      </trkpt>
      <trkpt lat="45.24075" lon="5.7827">
        <ele>860</ele>
        <time>2010-09-10T17:38:51.68</time>
      </trkpt>
      <trkpt lat="45.24081" lon="5.78294">
        <ele>861</ele>
        <time>2010-09-10T17:39:02.64</time>
      </trkpt>
      <trkpt lat="45.24091" lon="5.78319">
        <ele>862.5</ele>
        <time>2010-09-10T17:39:12.62</time>
      </trkpt>
      <trkpt lat="45.24108" lon="5.78331">
        <ele>865</ele>
        <time>2010-09-10T17:39:22.57</time>
      </trkpt>
      <trkpt lat="45.24084" lon="5.78334">
        <ele>863</ele>
        <time>2010-09-10T17:39:34.53</time>
      </trkpt>
      <trkpt lat="45.24076" lon="5.78325">
        <ele>854</ele>
        <time>2010-09-10T17:39:46.48</time>
      </trkpt>
      <trkpt lat="45.24075" lon="5.78325">
        <ele>850</ele>
        <time>2010-09-10T17:39:57.45</time>
      </trkpt>
      <trkpt lat="45.24091" lon="5.78346">
        <ele>844.5</ele>
        <time>2010-09-10T17:40:07.43</time>
      </trkpt>
      <trkpt lat="45.24108" lon="5.78374">
        <ele>842.5</ele>
        <time>2010-09-10T17:40:18.39</time>
      </trkpt>
      <trkpt lat="45.2409" lon="5.78373">
        <ele>841.5</ele>
        <time>2010-09-10T17:40:29.37</time>
      </trkpt>
      <trkpt lat="45.24068" lon="5.78359">
        <ele>834.5</ele>
        <time>2010-09-10T17:40:41.34</time>
      </trkpt>
      <trkpt lat="45.24056" lon="5.78367">
        <ele>834.5</ele>
        <time>2010-09-10T17:40:58.30</time>
      </trkpt>
      <trkpt lat="45.24052" lon="5.78375">
        <ele>827</ele>
        <time>2010-09-10T17:41:16.23</time>
      </trkpt>
      <trkpt lat="45.24068" lon="5.78405">
        <ele>823.5</ele>
        <time>2010-09-10T17:41:27.19</time>
      </trkpt>
      <trkpt lat="45.24077" lon="5.78424">
        <ele>825.5</ele>
        <time>2010-09-10T17:41:37.15</time>
      </trkpt>
      <trkpt lat="45.24089" lon="5.78424">
        <ele>821</ele>
        <time>2010-09-10T17:41:49.14</time>
      </trkpt>
      <trkpt lat="45.24096" lon="5.78428">
        <ele>819.5</ele>
        <time>2010-09-10T17:42:01.08</time>
      </trkpt>
      <trkpt lat="45.241" lon="5.78432">
        <ele>824.5</ele>
        <time>2010-09-10T17:42:24.05</time>
      </trkpt>
      <trkpt lat="45.24108" lon="5.78441">
        <ele>811</ele>
        <time>2010-09-10T17:43:30.07</time>
      </trkpt>
      <trkpt lat="45.24108" lon="5.78452">
        <ele>811</ele>
        <time>2010-09-10T17:43:43.10</time>
      </trkpt>
      <trkpt lat="45.24116" lon="5.7846">
        <ele>809</ele>
        <time>2010-09-10T17:43:54.98</time>
      </trkpt>
      <trkpt lat="45.24103" lon="5.78475">
        <ele>802.5</ele>
        <time>2010-09-10T17:44:06.85</time>
      </trkpt>
      <trkpt lat="45.2412" lon="5.78494">
        <ele>803.5</ele>
        <time>2010-09-10T17:44:17.96</time>
      </trkpt>
      <trkpt lat="45.24127" lon="5.78518">
        <ele>804.5</ele>
        <time>2010-09-10T17:44:29.77</time>
      </trkpt>
      <trkpt lat="45.24109" lon="5.78531">
        <ele>800</ele>
        <time>2010-09-10T17:44:40.93</time>
      </trkpt>
      <trkpt lat="45.24115" lon="5.78553">
        <ele>802.5</ele>
        <time>2010-09-10T17:44:53.85</time>
      </trkpt>
      <trkpt lat="45.24117" lon="5.78564">
        <ele>787</ele>
        <time>2010-09-10T17:45:06.66</time>
      </trkpt>
      <trkpt lat="45.24106" lon="5.78553">
        <ele>776.5</ele>
        <time>2010-09-10T17:45:18.61</time>
      </trkpt>
      <trkpt lat="45.24083" lon="5.78553">
        <ele>775</ele>
        <time>2010-09-10T17:45:34.67</time>
      </trkpt>
      <trkpt lat="45.24081" lon="5.78551">
        <ele>768</ele>
        <time>2010-09-10T17:45:47.63</time>
      </trkpt>
      <trkpt lat="45.24071" lon="5.78552">
        <ele>772.5</ele>
        <time>2010-09-10T17:46:11.58</time>
      </trkpt>
      <trkpt lat="45.24081" lon="5.78564">
        <ele>763</ele>
        <time>2010-09-10T17:46:21.54</time>
      </trkpt>
      <trkpt lat="45.24095" lon="5.78583">
        <ele>757.5</ele>
        <time>2010-09-10T17:46:31.50</time>
      </trkpt>
      <trkpt lat="45.24065" lon="5.78593">
        <ele>754</ele>
        <time>2010-09-10T17:46:43.44</time>
      </trkpt>
      <trkpt lat="45.24061" lon="5.78593">
        <ele>747.5</ele>
        <time>2010-09-10T17:46:58.38</time>
      </trkpt>
      <trkpt lat="45.24073" lon="5.78608">
        <ele>743.5</ele>
        <time>2010-09-10T17:47:08.54</time>
      </trkpt>
      <trkpt lat="45.24058" lon="5.78604">
        <ele>735.5</ele>
        <time>2010-09-10T17:47:21.30</time>
      </trkpt>
      <trkpt lat="45.24064" lon="5.7862">
        <ele>728</ele>
        <time>2010-09-10T17:47:32.26</time>
      </trkpt>
      <trkpt lat="45.24053" lon="5.78611">
        <ele>726</ele>
        <time>2010-09-10T17:47:44.29</time>
      </trkpt>
      <trkpt lat="45.24033" lon="5.78634">
        <ele>729</ele>
        <time>2010-09-10T17:47:56.17</time>
      </trkpt>
      <trkpt lat="45.24022" lon="5.78643">
        <ele>707</ele>
        <time>2010-09-10T17:48:09.11</time>
      </trkpt>
      <trkpt lat="45.24023" lon="5.78657">
        <ele>704</ele>
        <time>2010-09-10T17:48:21.06</time>
      </trkpt>
      <trkpt lat="45.24018" lon="5.78669">
        <ele>702.5</ele>
        <time>2010-09-10T17:48:34.00</time>
      </trkpt>
      <trkpt lat="45.24021" lon="5.78668">
        <ele>694</ele>
        <time>2010-09-10T17:48:48.95</time>
      </trkpt>
      <trkpt lat="45.24024" lon="5.7868">
        <ele>698.5</ele>
        <time>2010-09-10T17:48:59.91</time>
      </trkpt>
      <trkpt lat="45.24022" lon="5.78684">
        <ele>697.5</ele>
        <time>2010-09-10T17:49:09.87</time>
      </trkpt>
      <trkpt lat="45.24016" lon="5.78682">
        <ele>707.5</ele>
        <time>2010-09-10T17:49:54.84</time>
      </trkpt>
      <trkpt lat="45.24024" lon="5.78706">
        <ele>706</ele>
        <time>2010-09-10T17:50:04.79</time>
      </trkpt>
      <trkpt lat="45.24011" lon="5.78714">
        <ele>692.5</ele>
        <time>2010-09-10T17:50:21.75</time>
      </trkpt>
      <trkpt lat="45.24006" lon="5.78739">
        <ele>684.5</ele>
        <time>2010-09-10T17:50:35.67</time>
      </trkpt>
      <trkpt lat="45.24011" lon="5.78755">
        <ele>683</ele>
        <time>2010-09-10T17:50:45.63</time>
      </trkpt>
      <trkpt lat="45.2401" lon="5.78761">
        <ele>681</ele>
        <time>2010-09-10T17:50:57.59</time>
      </trkpt>
      <trkpt lat="45.23986" lon="5.78756">
        <ele>680</ele>
        <time>2010-09-10T17:51:08.54</time>
      </trkpt>
      <trkpt lat="45.23982" lon="5.78761">
        <ele>676</ele>
        <time>2010-09-10T17:51:18.50</time>
      </trkpt>
      <trkpt lat="45.23967" lon="5.78769">
        <ele>673</ele>
        <time>2010-09-10T17:51:29.46</time>
      </trkpt>
      <trkpt lat="45.23958" lon="5.7877">
        <ele>671</ele>
        <time>2010-09-10T17:51:44.67</time>
      </trkpt>
      <trkpt lat="45.23954" lon="5.78776">
        <ele>664</ele>
        <time>2010-09-10T17:51:56.66</time>
      </trkpt>
      <trkpt lat="45.23955" lon="5.78775">
        <ele>657.5</ele>
        <time>2010-09-10T17:52:06.59</time>
      </trkpt>
      <trkpt lat="45.23946" lon="5.78784">
        <ele>659</ele>
        <time>2010-09-10T17:52:17.53</time>
      </trkpt>
      <trkpt lat="45.23931" lon="5.78797">
        <ele>655.5</ele>
        <time>2010-09-10T17:52:27.49</time>
      </trkpt>
      <trkpt lat="45.23927" lon="5.78804">
        <ele>645</ele>
        <time>2010-09-10T17:52:38.44</time>
      </trkpt>
      <trkpt lat="45.23927" lon="5.78826">
        <ele>649</ele>
        <time>2010-09-10T17:52:48.41</time>
      </trkpt>
      <trkpt lat="45.23939" lon="5.78871">
        <ele>649</ele>
        <time>2010-09-10T17:52:59.37</time>
      </trkpt>
      <trkpt lat="45.23945" lon="5.78909">
        <ele>641</ele>
        <time>2010-09-10T17:53:10.34</time>
      </trkpt>
      <trkpt lat="45.23947" lon="5.78905">
        <ele>621.5</ele>
        <time>2010-09-10T17:53:44.29</time>
      </trkpt>
      <trkpt lat="45.23947" lon="5.78904">
        <ele>625.5</ele>
        <time>2010-09-10T17:54:07.25</time>
      </trkpt>
      <trkpt lat="45.23944" lon="5.78886">
        <ele>625.5</ele>
        <time>2010-09-10T17:54:18.23</time>
      </trkpt>
      <trkpt lat="45.23936" lon="5.78876">
        <ele>627</ele>
        <time>2010-09-10T17:54:34.19</time>
      </trkpt>
      <trkpt lat="45.2393" lon="5.78863">
        <ele>626</ele>
        <time>2010-09-10T17:54:44.15</time>
      </trkpt>
      <trkpt lat="45.23923" lon="5.78852">
        <ele>625.5</ele>
        <time>2010-09-10T17:54:54.12</time>
      </trkpt>
      <trkpt lat="45.23919" lon="5.78835">
        <ele>626</ele>
        <time>2010-09-10T17:55:10.08</time>
      </trkpt>
      <trkpt lat="45.23915" lon="5.78821">
        <ele>622.5</ele>
        <time>2010-09-10T17:55:21.03</time>
      </trkpt>
      <trkpt lat="45.23906" lon="5.78801">
        <ele>621.5</ele>
        <time>2010-09-10T17:55:33.99</time>
      </trkpt>
      <trkpt lat="45.23897" lon="5.78778">
        <ele>625</ele>
        <time>2010-09-10T17:55:44.13</time>
      </trkpt>
      <trkpt lat="45.23887" lon="5.7875">
        <ele>626.5</ele>
        <time>2010-09-10T17:55:53.92</time>
      </trkpt>
      <trkpt lat="45.23873" lon="5.78727">
        <ele>635</ele>
        <time>2010-09-10T17:56:03.86</time>
      </trkpt>
      <trkpt lat="45.23856" lon="5.78699">
        <ele>637</ele>
        <time>2010-09-10T17:56:13.80</time>
      </trkpt>
      <trkpt lat="45.23833" lon="5.78659">
        <ele>636.5</ele>
        <time>2010-09-10T17:56:23.77</time>
      </trkpt>
      <trkpt lat="45.23806" lon="5.78684">
        <ele>635.5</ele>
        <time>2010-09-10T17:56:37.81</time>
      </trkpt>
      <trkpt lat="45.23772" lon="5.7866">
        <ele>653</ele>
        <time>2010-09-10T17:56:49.59</time>
      </trkpt>
      <trkpt lat="45.23749" lon="5.78594">
        <ele>649.5</ele>
        <time>2010-09-10T17:57:02.69</time>
      </trkpt>
      <trkpt lat="45.23746" lon="5.78542">
        <ele>644.5</ele>
        <time>2010-09-10T17:57:12.59</time>
      </trkpt>
      <trkpt lat="45.23738" lon="5.7848">
        <ele>646.5</ele>
        <time>2010-09-10T17:57:24.47</time>
      </trkpt>
      <trkpt lat="45.23708" lon="5.78445">
        <ele>652.5</ele>
        <time>2010-09-10T17:57:34.64</time>
      </trkpt>
      <trkpt lat="45.23687" lon="5.78399">
        <ele>649.5</ele>
        <time>2010-09-10T17:57:44.39</time>
      </trkpt>
      <trkpt lat="45.2368" lon="5.78369">
        <ele>656</ele>
        <time>2010-09-10T17:57:56.36</time>
      </trkpt>
      <trkpt lat="45.23668" lon="5.78352">
        <ele>660</ele>
        <time>2010-09-10T17:58:06.32</time>
      </trkpt>
      <trkpt lat="45.23657" lon="5.78336">
        <ele>662</ele>
        <time>2010-09-10T17:58:16.29</time>
      </trkpt>
      <trkpt lat="45.23645" lon="5.78328">
        <ele>653.5</ele>
        <time>2010-09-10T17:58:36.24</time>
      </trkpt>
      <trkpt lat="45.23635" lon="5.783">
        <ele>659</ele>
        <time>2010-09-10T17:58:53.19</time>
      </trkpt>
      <trkpt lat="45.23599" lon="5.7831">
        <ele>655</ele>
        <time>2010-09-10T17:59:11.73</time>
      </trkpt>
      <trkpt lat="45.23587" lon="5.78293">
        <ele>657.5</ele>
        <time>2010-09-10T17:59:22.62</time>
      </trkpt>
      <trkpt lat="45.23582" lon="5.78271">
        <ele>654.5</ele>
        <time>2010-09-10T17:59:32.59</time>
      </trkpt>
      <trkpt lat="45.23573" lon="5.78182">
        <ele>647</ele>
        <time>2010-09-10T17:59:50.62</time>
      </trkpt>
      <trkpt lat="45.23516" lon="5.78126">
        <ele>642.5</ele>
        <time>2010-09-10T18:00:15.65</time>
      </trkpt>
      <trkpt lat="45.23494" lon="5.78115">
        <ele>639</ele>
        <time>2010-09-10T18:00:31.62</time>
      </trkpt>
      <trkpt lat="45.23488" lon="5.78103">
        <ele>635</ele>
        <time>2010-09-10T18:00:43.59</time>
      </trkpt>
      <trkpt lat="45.23457" lon="5.78092">
        <ele>627</ele>
        <time>2010-09-10T18:01:00.66</time>
      </trkpt>
      <trkpt lat="45.23435" lon="5.781">
        <ele>623</ele>
        <time>2010-09-10T18:01:12.64</time>
      </trkpt>
      <trkpt lat="45.23409" lon="5.78079">
        <ele>620</ele>
        <time>2010-09-10T18:01:26.63</time>
      </trkpt>
      <trkpt lat="45.23405" lon="5.78067">
        <ele>625</ele>
        <time>2010-09-10T18:01:38.59</time>
      </trkpt>
      <trkpt lat="45.23397" lon="5.7805">
        <ele>623</ele>
        <time>2010-09-10T18:01:48.55</time>
      </trkpt>
      <trkpt lat="45.23369" lon="5.78017">
        <ele>622.5</ele>
        <time>2010-09-10T18:02:01.49</time>
      </trkpt>
      <trkpt lat="45.23336" lon="5.77995">
        <ele>625</ele>
        <time>2010-09-10T18:02:14.44</time>
      </trkpt>
      <trkpt lat="45.23308" lon="5.77933">
        <ele>628</ele>
        <time>2010-09-10T18:02:29.64</time>
      </trkpt>
      <trkpt lat="45.23292" lon="5.77897">
        <ele>625.5</ele>
        <time>2010-09-10T18:02:56.60</time>
      </trkpt>
      <trkpt lat="45.23259" lon="5.77858">
        <ele>622</ele>
        <time>2010-09-10T18:03:16.57</time>
      </trkpt>
      <trkpt lat="45.23223" lon="5.7783">
        <ele>619.5</ele>
        <time>2010-09-10T18:03:37.64</time>
      </trkpt>
      <trkpt lat="45.23208" lon="5.77831">
        <ele>619</ele>
        <time>2010-09-10T18:03:50.62</time>
      </trkpt>
      <trkpt lat="45.23193" lon="5.77798">
        <ele>621.5</ele>
        <time>2010-09-10T18:04:03.57</time>
      </trkpt>
      <trkpt lat="45.23176" lon="5.77775">
        <ele>612</ele>
        <time>2010-09-10T18:04:15.62</time>
      </trkpt>
      <trkpt lat="45.23157" lon="5.77776">
        <ele>608.5</ele>
        <time>2010-09-10T18:04:26.58</time>
      </trkpt>
      <trkpt lat="45.2313" lon="5.77784">
        <ele>604.5</ele>
        <time>2010-09-10T18:04:36.53</time>
      </trkpt>
      <trkpt lat="45.23099" lon="5.77787">
        <ele>598.5</ele>
        <time>2010-09-10T18:04:52.49</time>
      </trkpt>
      <trkpt lat="45.23086" lon="5.77789">
        <ele>594</ele>
        <time>2010-09-10T18:05:08.45</time>
      </trkpt>
      <trkpt lat="45.23075" lon="5.77788">
        <ele>591</ele>
        <time>2010-09-10T18:05:30.42</time>
      </trkpt>
      <trkpt lat="45.23065" lon="5.77799">
        <ele>590.5</ele>
        <time>2010-09-10T18:05:40.38</time>
      </trkpt>
      <trkpt lat="45.23062" lon="5.77788">
        <ele>591</ele>
        <time>2010-09-10T18:05:50.34</time>
      </trkpt>
      <trkpt lat="45.23036" lon="5.77753">
        <ele>584.5</ele>
        <time>2010-09-10T18:06:04.65</time>
      </trkpt>
      <trkpt lat="45.23015" lon="5.77729">
        <ele>580.5</ele>
        <time>2010-09-10T18:06:14.59</time>
      </trkpt>
      <trkpt lat="45.23003" lon="5.77712">
        <ele>581</ele>
        <time>2010-09-10T18:06:24.54</time>
      </trkpt>
      <trkpt lat="45.22989" lon="5.77709">
        <ele>576.5</ele>
        <time>2010-09-10T18:06:35.50</time>
      </trkpt>
      <trkpt lat="45.22958" lon="5.77722">
        <ele>569.5</ele>
        <time>2010-09-10T18:06:47.44</time>
      </trkpt>
      <trkpt lat="45.22929" lon="5.77746">
        <ele>567</ele>
        <time>2010-09-10T18:07:01.40</time>
      </trkpt>
      <trkpt lat="45.22865" lon="5.77804">
        <ele>553.5</ele>
        <time>2010-09-10T18:07:17.64</time>
      </trkpt>
      <trkpt lat="45.22807" lon="5.77861">
        <ele>539.5</ele>
        <time>2010-09-10T18:07:31.60</time>
      </trkpt>
      <trkpt lat="45.22789" lon="5.7787">
        <ele>500.5</ele>
        <time>2010-09-10T18:08:24.62</time>
      </trkpt>
      <trkpt lat="45.22789" lon="5.77886">
        <ele>501</ele>
        <time>2010-09-10T18:08:54.63</time>
      </trkpt>
      <trkpt lat="45.22794" lon="5.77887">
        <ele>497</ele>
        <time>2010-09-10T18:09:23.58</time>
      </trkpt>
      <trkpt lat="45.22787" lon="5.77884">
        <ele>497.5</ele>
        <time>2010-09-10T18:09:54.54</time>
      </trkpt>
      <trkpt lat="45.22784" lon="5.77888">
        <ele>498</ele>
        <time>2010-09-10T18:10:04.50</time>
      </trkpt>
      <trkpt lat="45.22782" lon="5.77881">
        <ele>506.5</ele>
        <time>2010-09-10T18:10:22.45</time>
      </trkpt>
      <trkpt lat="45.22781" lon="5.77878">
        <ele>502.5</ele>
        <time>2010-09-10T18:10:32.39</time>
      </trkpt>
      <trkpt lat="45.22776" lon="5.77879">
        <ele>508</ele>
        <time>2010-09-10T18:10:42.35</time>
      </trkpt>
      <trkpt lat="45.22775" lon="5.77871">
        <ele>509.5</ele>
        <time>2010-09-10T18:10:55.65</time>
      </trkpt>
      <trkpt lat="45.22786" lon="5.77871">
        <ele>512</ele>
        <time>2010-09-10T18:11:06.59</time>
      </trkpt>
      <trkpt lat="45.22781" lon="5.77873">
        <ele>506.5</ele>
        <time>2010-09-10T18:11:16.55</time>
      </trkpt>
      <trkpt lat="45.2278" lon="5.77878">
        <ele>509</ele>
        <time>2010-09-10T18:11:34.55</time>
      </trkpt>
      <trkpt lat="45.22785" lon="5.77882">
        <ele>505.5</ele>
        <time>2010-09-10T18:11:50.47</time>
      </trkpt>
      <trkpt lat="45.22787" lon="5.77886">
        <ele>505.5</ele>
        <time>2010-09-10T18:12:01.43</time>
      </trkpt>
      <trkpt lat="45.22776" lon="5.7788">
        <ele>508</ele>
        <time>2010-09-10T18:12:11.38</time>
      </trkpt>
      <trkpt lat="45.22786" lon="5.77875">
        <ele>503.5</ele>
        <time>2010-09-10T18:12:21.34</time>
      </trkpt>
      <trkpt lat="45.22784" lon="5.77877">
        <ele>504.5</ele>
        <time>2010-09-10T18:12:34.29</time>
      </trkpt>
      <trkpt lat="45.22783" lon="5.77883">
        <ele>502</ele>
        <time>2010-09-10T18:12:45.25</time>
      </trkpt>
      <trkpt lat="45.22779" lon="5.77888">
        <ele>502.5</ele>
        <time>2010-09-10T18:12:56.22</time>
      </trkpt>
      <trkpt lat="45.22785" lon="5.77882">
        <ele>508.5</ele>
        <time>2010-09-10T18:13:07.18</time>
      </trkpt>
      <trkpt lat="45.2278" lon="5.77883">
        <ele>509</ele>
        <time>2010-09-10T18:13:18.14</time>
      </trkpt>
      <trkpt lat="45.2277" lon="5.77889">
        <ele>504</ele>
        <time>2010-09-10T18:13:31.09</time>
      </trkpt>
      <trkpt lat="45.22779" lon="5.7788">
        <ele>502</ele>
        <time>2010-09-10T18:13:51.05</time>
      </trkpt>
      <trkpt lat="45.22786" lon="5.77882">
        <ele>506</ele>
        <time>2010-09-10T18:14:21.00</time>
      </trkpt>
      <trkpt lat="45.22779" lon="5.77887">
        <ele>504</ele>
        <time>2010-09-10T18:14:33.95</time>
      </trkpt>
      <trkpt lat="45.22781" lon="5.77883">
        <ele>515.5</ele>
        <time>2010-09-10T18:14:58.92</time>
      </trkpt>
      <trkpt lat="45.22779" lon="5.77886">
        <ele>510</ele>
        <time>2010-09-10T18:15:31.87</time>
      </trkpt>
      <trkpt lat="45.22782" lon="5.7788">
        <ele>494.5</ele>
        <time>2010-09-10T18:17:41.51</time>
      </trkpt>
    </trkseg>
  </trk>
</gpx>